Time;durP1;ratioP1;P1;durP2;ratioP2;P2;SDS_P1;SDS_P2;PMS_P1;PMS_P2;Temp;Humidity;BMP_temperature;BMP_pressure;BME280_temperature;BME280_humidity;BME280_pressure;Samples;Min_cycle;Max_cycle;Signal;HPM_P1;HPM_P2
2022/01/21 00:00:35;;;;;;;0.10;0.10;;;;;;;5.54;64.18;103534.56;5087535;28;20020;-88
2022/01/21 00:03:01;;;;;;;0.20;0.20;;;;;;;5.49;64.04;103529.09;5086091;28;20035;-86
2022/01/21 00:05:27;;;;;;;0.10;0.10;;;;;;;5.49;63.97;103544.00;5091186;28;20576;-86
2022/01/21 00:07:53;;;;;;;0.10;0.10;;;;;;;5.42;64.30;103542.84;5091048;28;20036;-85
2022/01/21 00:10:21;;;;;;;0.17;0.17;;;;;;;5.43;64.23;103552.53;5097069;28;20028;-88
2022/01/21 00:12:52;;;;;;;0.10;0.10;;;;;;;5.40;64.40;103549.75;5090498;28;20102;-86
2022/01/21 00:15:18;;;;;;;0.10;0.10;;;;;;;5.39;64.48;103552.31;5090829;28;20027;-84
2022/01/21 00:17:44;;;;;;;0.10;0.10;;;;;;;5.40;64.28;103552.38;5095333;28;20022;-87
2022/01/21 00:31:15;;;;;;;0.10;0.10;;;;;;;5.56;64.29;103561.84;5083216;28;20124;-83
2022/01/21 00:33:41;;;;;;;0.10;0.10;;;;;;;5.54;64.24;103565.25;5087696;28;20123;-85
2022/01/21 00:36:08;;;;;;;0.10;0.10;;;;;;;5.59;64.11;103563.72;5085421;28;20024;-85
2022/01/21 00:38:42;;;;;;;0.10;0.10;;;;;;;5.53;64.25;103563.44;5089664;28;20368;-92
2022/01/21 00:41:17;;;;;;;0.10;0.10;;;;;;;5.59;64.32;103554.06;5089491;28;20035;-89
2022/01/21 00:43:48;;;;;;;0.10;0.10;;;;;;;5.55;64.34;103553.91;5090731;28;20427;-86
2022/01/21 00:46:44;;;;;;;0.10;0.10;;;;;;;5.57;64.40;103558.41;5085941;28;20032;-87
2022/01/21 00:49:11;;;;;;;0.10;0.10;;;;;;;5.48;64.37;103553.63;5079098;28;20367;-83
2022/01/21 00:51:47;;;;;;;0.10;0.10;;;;;;;5.48;64.69;103553.63;5086536;28;20050;-88
2022/01/21 00:54:15;;;;;;;0.10;0.10;;;;;;;5.46;64.69;103555.28;5083531;28;20151;-87
2022/01/21 00:56:42;;;;;;;0.00;0.00;;;;;;;5.48;64.76;103553.63;5085945;28;20027;-85
2022/01/21 00:59:08;;;;;;;0.10;0.10;;;;;;;5.49;64.52;103562.41;5084877;28;20174;-83
2022/01/21 01:01:35;;;;;;;0.10;0.10;;;;;;;5.52;64.61;103559.91;5079632;28;20032;-85
2022/01/21 01:04:01;;;;;;;0.10;0.10;;;;;;;5.54;64.76;103562.63;5090769;28;20390;-86
2022/01/21 01:06:27;;;;;;;0.10;0.10;;;;;;;5.53;64.64;103561.69;5091411;28;20040;-86
2022/01/21 01:08:54;;;;;;;0.17;0.17;;;;;;;5.54;64.76;103554.72;5088260;28;20066;-85
2022/01/21 01:20:04;;;;;;;0.10;0.10;;;;;;;5.52;64.94;103554.66;5090180;28;20040;-84
2022/01/21 01:22:53;;;;;;;0.10;0.10;;;;;;;5.54;64.53;103558.25;5086324;28;20039;-84
2022/01/21 01:28:06;;;;;;;0.10;0.10;;;;;;;5.46;64.71;103544.75;5087281;28;20139;-83
2022/01/21 01:30:37;;;;;;;0.10;0.10;;;;;;;5.47;64.75;103549.19;5086343;28;20628;-84
2022/01/21 01:33:09;;;;;;;0.20;0.20;;;;;;;5.47;64.86;103546.56;5094183;28;20075;-84
2022/01/21 01:35:39;;;;;;;0.10;0.10;;;;;;;5.46;64.97;103544.75;5085802;28;20035;-86
2022/01/21 01:40:58;;;;;;;0.10;0.10;;;;;;;5.60;64.97;103552.38;5088631;28;20032;-83
2022/01/21 01:49:33;;;;;;;0.10;0.10;;;;;;;5.50;66.57;103583.50;5027165;28;20127;-83
2022/01/21 01:51:47;;;;;;;0.10;0.10;;;;;;;5.54;66.52;103578.41;5020132;28;20064;-84
2022/01/21 01:54:15;;;;;;;0.20;0.20;;;;;;;5.58;65.87;103559.28;5024969;28;20038;-81
2022/01/21 01:56:50;;;;;;;0.10;0.10;;;;;;;5.51;66.68;103559.00;5030608;28;20056;-83
2022/01/21 01:59:18;;;;;;;0.10;0.10;;;;;;;5.53;66.28;103545.03;5027416;28;20038;-83
2022/01/21 02:01:52;;;;;;;0.13;0.13;;;;;;;5.57;66.11;103546.94;5021879;28;20128;-86
2022/01/21 02:04:19;;;;;;;0.10;0.10;;;;;;;5.42;67.02;103553.34;5016781;28;20079;-84
2022/01/21 02:06:57;;;;;;;0.10;0.10;;;;;;;5.42;66.39;103545.47;5021905;28;20034;-84
2022/01/21 02:09:29;;;;;;;0.10;0.10;;;;;;;5.39;66.22;103552.31;5020380;28;20026;-82
2022/01/21 02:11:56;;;;;;;0.10;0.10;;;;;;;5.31;66.69;103558.09;5020077;28;20062;-82
2022/01/21 02:14:35;;;;;;;0.10;0.10;;;;;;;5.27;66.22;103564.06;5017542;28;20033;-82
2022/01/21 02:22:39;;;;;;;0.10;0.10;;;;;;;5.14;65.72;103567.84;5053585;28;20045;-82
2022/01/21 02:25:22;;;;;;;0.10;0.10;;;;;;;5.12;66.16;103569.53;5048064;28;20041;-84
2022/01/21 02:27:51;;;;;;;0.20;0.20;;;;;;;5.09;66.43;103566.72;5056554;28;20399;-85
2022/01/21 02:30:21;;;;;;;0.10;0.10;;;;;;;5.07;66.00;103568.41;5043090;28;20369;-89
2022/01/21 02:32:51;;;;;;;0.10;0.10;;;;;;;5.02;66.47;103556.75;5054147;28;20035;-86
2022/01/21 02:35:18;;;;;;;0.17;0.17;;;;;;;5.00;66.35;103564.56;5046572;28;20044;-87
2022/01/21 02:37:45;;;;;;;0.10;0.10;;;;;;;4.99;66.02;103559.25;5049964;28;20065;-84
2022/01/21 02:40:14;;;;;;;0.10;0.10;;;;;;;4.98;66.91;103555.69;5051817;28;20028;-82
2022/01/21 02:42:41;;;;;;;0.10;0.10;;;;;;;4.96;66.62;103553.84;5046535;28;20021;-83
2022/01/21 02:45:09;;;;;;;0.10;0.10;;;;;;;4.97;66.65;103568.78;5037412;28;20048;-83
2022/01/21 02:47:36;;;;;;;0.10;0.10;;;;;;;4.97;66.76;103563.53;5050321;28;20044;-85
2022/01/21 02:50:03;;;;;;;0.10;0.10;;;;;;;4.93;66.79;103553.72;5034458;28;20060;-84
2022/01/21 02:52:39;;;;;;;0.20;0.20;;;;;;;4.97;66.80;103547.75;5037290;28;20772;-84
2022/01/21 02:55:08;;;;;;;0.10;0.10;;;;;;;5.01;66.62;103547.09;5044558;28;20111;-84
2022/01/21 02:57:35;;;;;;;0.10;0.10;;;;;;;5.05;66.52;103546.41;5057017;28;20041;-84
2022/01/21 03:00:02;;;;;;;0.10;0.10;;;;;;;5.08;66.53;103546.53;5049334;28;20041;-84
2022/01/21 03:02:29;;;;;;;0.10;0.10;;;;;;;5.10;66.57;103541.38;5053503;28;20111;-83
2022/01/21 03:05:03;;;;;;;0.10;0.10;;;;;;;5.12;66.57;103548.50;5043083;28;20044;-83
2022/01/21 03:07:30;;;;;;;0.10;0.10;;;;;;;5.10;66.56;103536.09;5051231;28;20391;-85
2022/01/21 03:09:59;;;;;;;0.10;0.10;;;;;;;5.09;66.56;103532.56;5053914;28;20087;-83
2022/01/21 03:12:26;;;;;;;0.10;0.10;;;;;;;5.07;66.66;103536.88;5052567;28;20033;-83
2022/01/21 03:14:52;;;;;;;0.17;0.17;;;;;;;5.07;66.81;103542.13;5046734;28;20040;-86
2022/01/21 03:17:18;;;;;;;0.10;0.10;;;;;;;5.09;66.39;103550.06;5055876;28;20392;-86
2022/01/21 03:19:45;;;;;;;0.10;0.10;;;;;;;5.10;66.88;103544.88;5051842;28;20037;-86
2022/01/21 03:22:12;;;;;;;0.13;0.13;;;;;;;5.12;66.82;103544.94;5039694;28;20083;-81
2022/01/21 03:24:39;;;;;;;0.10;0.10;;;;;;;5.17;66.66;103543.41;5045711;28;20476;-87
2022/01/21 03:27:06;;;;;;;0.10;0.10;;;;;;;5.19;66.62;103547.91;5043653;28;20021;-83
2022/01/21 03:29:32;;;;;;;0.17;0.17;;;;;;;5.19;66.47;103547.91;5041699;28;20045;-83
2022/01/21 03:31:59;;;;;;;0.10;0.10;;;;;;;5.14;66.98;103546.81;5031604;28;20029;-86
2022/01/21 03:34:26;;;;;;;0.10;0.10;;;;;;;5.20;66.59;103546.22;5030145;28;20376;-84
2022/01/21 03:36:54;;;;;;;0.10;0.10;;;;;;;5.18;66.42;103548.78;5027356;28;20056;-83
2022/01/21 03:39:21;;;;;;;0.10;0.10;;;;;;;5.22;66.33;103549.81;5038065;28;20095;-83
2022/01/21 03:41:47;;;;;;;0.10;0.10;;;;;;;5.17;66.35;103553.94;5027320;28;20583;-85
2022/01/21 03:44:13;;;;;;;7.72;3.63;;;;;;;5.18;66.81;103556.66;5028126;28;20123;-87
2022/01/21 03:46:40;;;;;;;0.10;0.10;;;;;;;5.21;66.48;103562.88;5042411;28;20033;-84
2022/01/21 03:49:08;;;;;;;0.10;0.10;;;;;;;5.22;65.86;103564.66;5024130;28;20062;-90
2022/01/21 03:51:40;;;;;;;0.10;0.10;;;;;;;5.20;66.29;103572.50;5027834;28;20403;-84
2022/01/21 03:54:18;;;;;;;0.20;0.20;;;;;;;5.23;65.96;103567.38;5031241;28;20038;-88
2022/01/21 03:57:03;;;;;;;0.10;0.10;;;;;;;5.23;66.07;103571.72;5037546;28;20040;-89
2022/01/21 03:59:36;;;;;;;0.10;0.10;;;;;;;5.16;65.79;103574.06;5030866;28;20051;-83
2022/01/21 04:02:05;;;;;;;0.10;0.10;;;;;;;5.15;65.92;103580.16;5034577;28;20044;-86
2022/01/21 04:04:31;;;;;;;0.10;0.10;;;;;;;5.13;65.93;103573.91;5022981;28;20477;-84
2022/01/21 04:06:58;;;;;;;0.20;0.20;;;;;;;5.08;66.37;103572.81;5022957;28;20122;-86
2022/01/21 04:09:24;;;;;;;0.10;0.10;;;;;;;5.08;65.65;103572.81;5024406;28;20157;-84
2022/01/21 04:11:51;;;;;;;0.10;0.10;;;;;;;5.07;65.90;103576.28;5020333;28;20088;-84
2022/01/21 04:14:18;;;;;;;0.20;0.20;;;;;;;5.07;66.04;103571.03;5024074;28;20058;-84
2022/01/21 04:16:44;;;;;;;0.10;0.10;;;;;;;5.06;65.92;103573.56;5021162;28;20766;-84
2022/01/21 04:19:10;;;;;;;0.20;0.20;;;;;;;5.05;66.32;103577.00;5021723;28;20047;-84
2022/01/21 04:21:36;;;;;;;0.10;0.10;;;;;;;5.04;65.98;103576.13;5021989;28;20404;-88
2022/01/21 04:24:03;;;;;;;0.10;0.10;;;;;;;5.02;66.00;103575.16;5022269;28;20113;-87
2022/01/21 04:26:30;;;;;;;0.10;0.10;;;;;;;5.01;66.16;103573.38;5022440;28;20029;-85
2022/01/21 04:28:56;;;;;;;0.10;0.10;;;;;;;4.98;65.99;103570.59;5027595;28;20073;-84
2022/01/21 04:31:22;;;;;;;0.10;0.10;;;;;;;4.95;65.80;103576.59;5021204;28;20484;-84
2022/01/21 04:33:48;;;;;;;0.10;0.10;;;;;;;4.90;66.08;103572.84;5021395;28;20423;-83
2022/01/21 04:36:16;;;;;;;0.20;0.20;;;;;;;4.88;66.14;103573.63;5023621;28;20445;-89
2022/01/21 04:38:42;;;;;;;0.10;0.10;;;;;;;4.86;66.24;103570.91;5023906;28;20037;-85
2022/01/21 04:47:18;;;;;;;0.13;0.13;;;;;;;4.73;65.78;103585.16;5060236;28;20051;-85
2022/01/21 04:49:33;;;;;;;0.10;0.10;;;;;;;4.69;66.08;103581.50;5066128;28;20033;-86
2022/01/21 04:52:02;;;;;;;0.20;0.20;;;;;;;4.65;65.68;103576.94;5058523;28;20399;-83
2022/01/21 04:54:30;;;;;;;0.20;0.20;;;;;;;4.64;65.76;103580.38;5059062;28;20033;-86
2022/01/21 04:56:57;;;;;;;0.10;0.10;;;;;;;4.59;66.07;103581.00;5064293;28;20044;-82
2022/01/21 04:59:23;;;;;;;0.10;0.10;;;;;;;4.56;66.39;103575.56;5059167;28;20033;-83
2022/01/21 05:01:49;;;;;;;0.20;0.20;;;;;;;4.54;66.46;103567.63;5060427;28;20498;-83
2022/01/21 05:04:15;;;;;;;0.10;0.10;;;;;;;4.52;66.43;103579.78;5059767;28;20116;-86
2022/01/21 05:06:41;;;;;;;0.10;0.10;;;;;;;4.53;66.33;103578.94;5063931;28;20103;-88
2022/01/21 05:09:07;;;;;;;0.10;0.10;;;;;;;4.60;66.31;103577.50;5059761;28;20048;-83
2022/01/21 05:11:36;;;;;;;0.10;0.10;;;;;;;4.65;66.73;103566.41;5062669;28;20178;-90
2022/01/21 05:14:17;;;;;;;0.10;0.10;;;;;;;4.66;66.86;103562.06;5059505;28;20107;-84
2022/01/21 05:16:47;;;;;;;0.10;0.10;;;;;;;4.69;66.71;103556.97;5062205;28;20033;-89
2022/01/21 05:19:16;;;;;;;0.10;0.10;;;;;;;4.65;67.16;103566.41;5060639;28;20027;-83
2022/01/21 05:21:45;;;;;;;0.10;0.10;;;;;;;4.65;67.16;103565.53;5068245;28;20384;-86
2022/01/21 05:24:12;;;;;;;0.17;0.17;;;;;;;4.66;67.35;103564.69;5041295;28;20029;-83
2022/01/21 05:26:41;;;;;;;0.10;0.10;;;;;;;4.67;66.97;103563.88;5061871;28;20085;-83
2022/01/21 05:29:09;;;;;;;0.10;0.10;;;;;;;4.70;66.89;103558.78;5057862;28;20380;-84
2022/01/21 05:31:35;;;;;;;0.20;0.20;;;;;;;4.68;67.61;103555.16;5063315;28;20163;-83
2022/01/21 05:34:02;;;;;;;0.10;0.10;;;;;;;4.70;67.35;103548.28;5060576;28;20043;-84
2022/01/21 05:36:30;;;;;;;0.20;0.20;;;;;;;4.73;66.71;103555.38;5062553;28;20055;-84
2022/01/21 05:38:58;;;;;;;0.10;0.10;;;;;;;4.75;66.84;103552.00;5059078;28;20130;-82
2022/01/21 05:41:25;;;;;;;0.20;0.20;;;;;;;4.80;66.82;103545.25;5056291;28;20029;-84
2022/01/21 05:43:59;;;;;;;0.10;0.10;;;;;;;4.84;67.19;103547.19;5057448;28;20119;-84
2022/01/21 05:46:41;;;;;;;0.10;0.10;;;;;;;4.91;67.06;103553.66;5060391;28;20368;-87
2022/01/21 05:49:07;;;;;;;0.15;0.15;;;;;;;4.99;67.02;103548.75;5057875;28;20029;-84
2022/01/21 05:51:34;;;;;;;0.13;0.13;;;;;;;5.06;66.95;103547.28;5057581;28;20028;-86
2022/01/21 05:54:00;;;;;;;0.20;0.20;;;;;;;5.14;66.87;103557.31;5054333;28;20029;-84
2022/01/21 05:56:27;;;;;;;0.20;0.20;;;;;;;5.20;67.32;103556.72;5046465;28;20033;-84
2022/01/21 05:58:54;;;;;;;0.17;0.17;;;;;;;5.31;66.89;103568.63;5044198;28;20037;-86
2022/01/21 06:01:20;;;;;;;0.10;0.10;;;;;;;5.37;67.22;103581.16;5045687;28;20068;-86
2022/01/21 06:03:47;;;;;;;0.20;0.20;;;;;;;5.41;67.08;103583.09;5050938;28;20048;-83
2022/01/21 06:06:18;;;;;;;0.10;0.10;;;;;;;5.61;66.89;103577.84;5051977;28;20076;-90
2022/01/21 06:08:44;;;;;;;0.10;0.10;;;;;;;5.63;67.02;103574.44;5044353;28;20041;-84
2022/01/21 06:11:10;;;;;;;0.13;0.13;;;;;;;5.69;67.31;103586.06;5045628;28;20120;-85
2022/01/21 06:13:37;;;;;;;0.10;0.10;;;;;;;5.81;66.58;103576.09;5033397;28;20090;-84
2022/01/21 06:16:07;;;;;;;0.10;0.10;;;;;;;5.88;66.65;103574.63;5046755;28;20484;-91
2022/01/21 06:18:34;;;;;;;0.10;0.10;;;;;;;5.89;66.55;103573.78;5047552;28;20040;-88
2022/01/21 06:21:00;;;;;;;0.17;0.17;;;;;;;5.84;66.60;103578.84;5044980;28;20037;-83
2022/01/21 06:23:27;;;;;;;0.10;0.10;;;;;;;5.81;66.59;103579.59;5044694;28;20064;-84
2022/01/21 06:25:53;;;;;;;0.10;0.10;;;;;;;5.81;66.32;103574.34;5044701;28;20422;-84
2022/01/21 06:28:19;;;;;;;0.10;0.10;;;;;;;5.72;66.54;103583.56;5044536;28;20119;-84
2022/01/21 06:30:45;;;;;;;0.10;0.10;;;;;;;5.75;66.18;103584.59;5050045;28;20033;-83
2022/01/21 06:33:12;;;;;;;0.10;0.10;;;;;;;5.65;66.00;103592.91;5045021;28;20048;-84
2022/01/21 06:35:57;;;;;;;0.10;0.10;;;;;;;5.73;66.00;103586.28;5049470;28;20052;-84
2022/01/21 06:38:24;;;;;;;0.10;0.10;;;;;;;5.57;66.42;103586.41;5043485;28;20021;-86
2022/01/21 06:40:51;;;;;;;0.10;0.10;;;;;;;5.56;66.51;103589.84;5042447;28;20022;-83
2022/01/21 06:43:18;;;;;;;0.10;0.10;;;;;;;5.53;66.65;103595.00;5047305;28;20033;-84
2022/01/21 06:45:44;;;;;;;0.10;0.10;;;;;;;5.54;66.32;103586.28;5047417;28;20468;-84
2022/01/21 06:48:10;;;;;;;0.20;0.20;;;;;;;5.53;66.62;103592.38;5042611;28;20047;-85
2022/01/21 06:50:39;;;;;;;0.10;0.10;;;;;;;5.53;66.56;103597.63;5044096;28;20162;-83
2022/01/21 06:53:05;;;;;;;0.10;0.10;;;;;;;5.53;66.84;103605.53;5042905;28;20049;-83
2022/01/21 06:55:32;;;;;;;0.10;0.10;;;;;;;5.55;67.25;103609.13;5043016;28;20455;-83
2022/01/21 06:57:58;;;;;;;0.20;0.20;;;;;;;5.60;67.18;103611.13;5042253;28;20052;-84
2022/01/21 07:00:24;;;;;;;0.10;0.10;;;;;;;5.71;67.11;103613.31;5045188;28;20130;-85
2022/01/21 07:02:53;;;;;;;0.10;0.10;;;;;;;5.81;67.01;103607.66;5047678;28;22729;-84
2022/01/21 07:05:22;;;;;;;0.10;0.10;;;;;;;5.83;66.99;103614.78;5038325;28;20052;-89
2022/01/21 07:07:49;;;;;;;0.10;0.10;;;;;;;5.88;67.02;103600.94;5044632;28;20108;-86
2022/01/21 07:10:16;;;;;;;0.10;0.10;;;;;;;5.88;67.16;103595.66;5043721;28;20033;-84
2022/01/21 07:12:44;;;;;;;2.65;2.20;;;;;;;5.94;67.07;103577.50;5047173;28;20344;-85
2022/01/21 07:15:15;;;;;;;0.20;0.20;;;;;;;5.95;66.97;103595.09;5042527;28;20044;-84
2022/01/21 07:17:42;;;;;;;0.10;0.10;;;;;;;5.96;66.71;103604.81;5041716;28;20034;-83
2022/01/21 07:20:09;;;;;;;0.13;0.13;;;;;;;5.95;66.53;103605.63;5043380;28;20045;-84
2022/01/21 07:22:36;;;;;;;0.10;0.10;;;;;;;5.92;66.79;103610.75;5049019;28;20044;-83
2022/01/21 07:25:02;;;;;;;0.10;0.10;;;;;;;5.89;66.85;103626.41;5044753;28;20029;-82
2022/01/21 07:27:29;;;;;;;0.10;0.10;;;;;;;5.88;66.79;103621.97;5045481;28;20053;-83
2022/01/21 07:29:55;;;;;;;0.10;0.10;;;;;;;5.89;66.55;103626.41;5046239;28;20063;-83
2022/01/21 07:32:21;;;;;;;0.40;0.40;;;;;;;5.87;66.67;103628.06;5046582;28;20029;-83
2022/01/21 07:34:50;;;;;;;0.20;0.20;;;;;;;5.88;66.64;103635.13;5043244;28;20506;-85
2022/01/21 07:37:16;;;;;;;0.10;0.10;;;;;;;5.89;66.61;103629.94;5050257;28;20127;-84
2022/01/21 07:39:42;;;;;;;0.10;0.10;;;;;;;5.91;66.54;103624.75;5047234;28;20041;-85
2022/01/21 07:42:09;;;;;;;1.95;1.85;;;;;;;5.88;66.72;103632.50;5040473;28;20045;-85
2022/01/21 07:44:35;;;;;;;0.10;0.10;;;;;;;5.83;66.97;103619.13;5041370;28;20029;-84
2022/01/21 07:47:02;;;;;;;0.10;0.10;;;;;;;5.83;66.76;103622.69;5048308;28;20111;-83
2022/01/21 07:49:28;;;;;;;0.10;0.10;;;;;;;5.83;66.49;103619.13;5043753;28;20025;-84
2022/01/21 07:51:54;;;;;;;0.10;0.10;;;;;;;5.82;66.45;103623.50;5043755;28;20037;-84
2022/01/21 07:54:20;;;;;;;0.10;0.10;;;;;;;5.81;66.52;103621.72;5039729;28;20035;-85
2022/01/21 07:56:46;;;;;;;0.10;0.10;;;;;;;5.77;66.44;103619.78;5041175;28;20472;-84
2022/01/21 07:59:14;;;;;;;0.10;0.10;;;;;;;5.73;66.30;103617.84;5037996;28;20045;-83
2022/01/21 08:01:41;;;;;;;0.10;0.10;;;;;;;5.70;66.28;103615.06;5041727;28;20108;-84
2022/01/21 08:04:08;;;;;;;0.10;0.10;;;;;;;5.69;66.45;103618.53;5041264;28;20083;-84
2022/01/21 08:06:34;;;;;;;0.10;0.10;;;;;;;5.69;66.71;103621.16;5040602;28;20025;-84
2022/01/21 08:09:00;;;;;;;0.10;0.10;;;;;;;5.71;66.61;103611.59;5042129;28;20132;-84
2022/01/21 08:11:27;;;;;;;0.10;0.10;;;;;;;5.70;66.72;103617.69;5038744;28;20997;-84
2022/01/21 08:13:53;;;;;;;0.10;0.10;;;;;;;5.75;66.96;103615.28;5040603;28;20041;-84
2022/01/21 08:16:20;;;;;;;0.93;0.88;;;;;;;5.80;66.85;103630.44;5042727;28;20471;-84
2022/01/21 08:18:46;;;;;;;0.10;0.10;;;;;;;5.84;66.68;103628.84;5045919;28;20468;-83
2022/01/21 08:21:18;;;;;;;0.10;0.10;;;;;;;5.92;67.03;103631.78;5046103;28;20029;-83
2022/01/21 08:23:46;;;;;;;0.20;0.20;;;;;;;6.01;66.96;103640.16;5037302;28;20036;-85
2022/01/21 08:26:13;;;;;;;0.10;0.10;;;;;;;6.06;66.98;103630.72;5039815;28;20032;-83
2022/01/21 08:28:40;;;;;;;0.10;0.10;;;;;;;6.14;67.10;103631.03;5041131;28;20380;-82
2022/01/21 08:31:06;;;;;;;0.10;0.10;;;;;;;6.20;66.97;103636.56;5042371;28;20071;-84
2022/01/21 08:33:36;;;;;;;0.10;0.10;;;;;;;6.30;66.97;103633.50;5040882;28;20040;-85
2022/01/21 08:36:04;;;;;;;0.10;0.10;;;;;;;6.38;67.07;103632.94;5045015;28;20029;-83
2022/01/21 08:38:30;;;;;;;0.20;0.20;;;;;;;6.43;66.95;103634.94;5043863;28;20028;-82
2022/01/21 08:40:56;;;;;;;0.10;0.10;;;;;;;6.47;67.34;103634.22;5035631;28;20041;-83
2022/01/21 08:43:22;;;;;;;0.10;0.10;;;;;;;6.57;67.09;103632.88;5038833;28;20051;-85
2022/01/21 08:45:48;;;;;;;0.10;0.10;;;;;;;6.66;67.12;103621.81;5042254;28;20112;-82
2022/01/21 08:48:15;;;;;;;0.10;0.10;;;;;;;6.72;66.93;103613.28;5043751;28;20040;-82
2022/01/21 08:50:41;;;;;;;0.20;0.20;;;;;;;6.78;66.88;103606.50;5036925;28;20083;-83
2022/01/21 08:53:35;;;;;;;0.13;0.13;;;;;;;6.85;66.75;103598.84;5043023;28;20412;-82
2022/01/21 08:55:53;;;;;;;0.10;0.10;;;;;;;6.93;66.66;103600.06;5045658;28;20098;-81
2022/01/21 08:58:19;;;;;;;0.17;0.17;;;;;;;6.97;66.58;103599.34;5048385;28;20388;-81
2022/01/21 09:00:46;;;;;;;0.10;0.10;;;;;;;7.04;66.63;103601.38;5047607;28;20040;-81
2022/01/21 09:03:19;;;;;;;0.10;0.10;;;;;;;7.09;66.61;103597.19;5040298;28;20071;-81
2022/01/21 09:05:49;;;;;;;0.10;0.10;;;;;;;7.13;66.27;103604.38;5038950;28;20033;-82
2022/01/21 09:08:16;;;;;;;0.10;0.10;;;;;;;7.19;66.47;103602.78;5036651;28;20055;-82
2022/01/21 09:10:42;;;;;;;0.10;0.10;;;;;;;7.24;66.16;103603.88;5042786;28;20047;-83
2022/01/21 09:13:09;;;;;;;0.10;0.10;;;;;;;7.28;66.33;103611.06;5039790;28;20025;-84
2022/01/21 09:15:36;;;;;;;0.10;0.10;;;;;;;7.31;66.49;103608.53;5037868;28;20072;-82
2022/01/21 09:18:06;;;;;;;0.10;0.10;;;;;;;7.35;66.19;103614.84;5037589;28;20106;-88
2022/01/21 09:20:34;;;;;;;0.10;0.10;;;;;;;7.37;66.03;103621.97;5040892;28;20124;-82
2022/01/21 09:23:01;;;;;;;0.10;0.10;;;;;;;7.40;65.81;103614.19;5044553;28;20036;-84
2022/01/21 09:25:27;;;;;;;0.17;0.17;;;;;;;7.45;65.92;103611.69;5038816;28;20075;-84
2022/01/21 09:27:54;;;;;;;0.20;0.20;;;;;;;7.47;65.83;103606.50;5039532;28;20041;-83
2022/01/21 09:30:20;;;;;;;0.20;0.20;;;;;;;7.51;66.26;103609.28;5038848;28;20439;-84
2022/01/21 09:32:46;;;;;;;0.10;0.10;;;;;;;7.56;65.92;103604.19;5040975;28;20029;-87
2022/01/21 09:35:13;;;;;;;0.10;0.10;;;;;;;7.57;65.50;103611.28;5047725;28;20067;-84
2022/01/21 09:37:39;;;;;;;0.10;0.10;;;;;;;7.63;65.81;103613.22;5046786;28;20036;-84
2022/01/21 09:40:06;;;;;;;0.10;0.10;;;;;;;7.66;65.88;103614.22;5046086;28;20043;-84
2022/01/21 09:42:34;;;;;;;0.10;0.10;;;;;;;7.68;66.25;103604.66;5050357;28;20025;-86
2022/01/21 09:45:07;;;;;;;0.10;0.10;;;;;;;7.80;66.61;103611.22;5037226;28;20424;-86
2022/01/21 09:47:44;;;;;;;0.10;0.10;;;;;;;7.92;66.17;103603.72;5047717;28;20052;-86
2022/01/21 09:50:11;;;;;;;0.20;0.20;;;;;;;8.05;65.92;103611.25;5044426;28;20038;-86
2022/01/21 09:52:41;;;;;;;0.20;0.20;;;;;;;8.20;66.02;103616.16;5042332;28;20032;-86
2022/01/21 09:55:07;;;;;;;1.85;1.83;;;;;;;8.28;66.26;103618.19;5041812;28;20061;-86
2022/01/21 09:57:34;;;;;;;0.10;0.10;;;;;;;8.35;65.88;103607.88;5042802;28;20029;-86
2022/01/21 10:00:03;;;;;;;8.77;1.88;;;;;;;8.41;65.42;103621.28;5038178;28;20026;-86
2022/01/21 10:02:29;;;;;;;0.10;0.10;;;;;;;8.48;65.32;103621.53;5036142;28;20117;-86
2022/01/21 10:04:59;;;;;;;0.10;0.10;;;;;;;8.58;64.87;103623.63;5039897;28;20037;-87
2022/01/21 10:07:25;;;;;;;0.10;0.10;;;;;;;8.57;65.35;103628.00;5041963;28;20025;-86
2022/01/21 10:09:53;;;;;;;0.10;0.10;;;;;;;8.70;64.66;103626.66;5045061;28;20072;-87
2022/01/21 10:12:20;;;;;;;0.10;0.10;;;;;;;8.77;64.81;103632.16;5038979;28;20033;-85
2022/01/21 10:14:46;;;;;;;0.10;0.10;;;;;;;8.71;64.60;103631.09;5041254;28;20384;-86
2022/01/21 10:17:13;;;;;;;0.20;0.20;;;;;;;8.82;64.83;103634.09;5037861;28;20090;-86
2022/01/21 10:19:40;;;;;;;0.10;0.10;;;;;;;8.93;64.59;103650.28;5046806;28;20025;-85
2022/01/21 10:22:13;;;;;;;0.75;0.75;;;;;;;8.96;64.89;103642.47;5045383;28;20509;-88
2022/01/21 10:27:36;;;;;;;0.10;0.10;;;;;;;9.17;64.68;103636.97;5062316;27;20440;-84
2022/01/21 10:30:06;;;;;;;0.00;0.00;;;;;;;9.19;65.06;103647.56;5046864;28;20095;-85
2022/01/21 10:32:35;;;;;;;0.30;0.30;;;;;;;9.21;64.48;103648.53;5045712;28;20030;-84
2022/01/21 10:35:02;;;;;;;0.10;0.10;;;;;;;9.24;64.64;103645.97;5039300;28;20119;-84
2022/01/21 10:37:46;;;;;;;0.10;0.10;;;;;;;9.34;64.80;103640.09;5044574;28;20439;-83
2022/01/21 10:40:15;;;;;;;4.07;1.65;;;;;;;9.43;64.36;103633.28;5046499;28;20029;-83
2022/01/21 10:42:41;;;;;;;0.10;0.10;;;;;;;9.47;64.65;103619.28;5040807;28;20045;-84
2022/01/21 10:45:09;;;;;;;0.05;0.05;;;;;;;9.47;65.08;103628.16;5030352;28;20496;-85
2022/01/21 10:47:38;;;;;;;0.10;0.10;;;;;;;9.49;64.94;103625.53;5050295;28;20419;-83
2022/01/21 10:50:11;;;;;;;0.10;0.10;;;;;;;9.51;64.99;103631.78;5047431;28;20144;-84
2022/01/21 10:52:46;;;;;;;0.10;0.10;;;;;;;9.48;64.70;103622.00;5047599;28;20032;-84
2022/01/21 10:55:35;;;;;;;0.10;0.10;;;;;;;9.54;64.59;103616.91;5047310;28;20531;-84
2022/01/21 11:01:11;;;;;;;0.10;0.10;;;;;;;9.53;64.71;103606.25;5065626;27;20443;-85
2022/01/21 11:03:55;;;;;;;0.10;0.10;;;;;;;9.45;64.44;103616.59;5064012;28;20434;-83
2022/01/21 11:06:24;;;;;;;0.10;0.10;;;;;;;9.46;64.44;103614.84;5063072;28;20026;-87
2022/01/21 11:08:50;;;;;;;0.20;0.20;;;;;;;9.47;64.79;103616.66;5047634;28;20125;-87
2022/01/21 11:11:23;;;;;;;0.10;0.10;;;;;;;9.50;64.40;103614.09;5047599;28;20108;-87
2022/01/21 11:13:49;;;;;;;0.10;0.10;;;;;;;9.53;63.99;103619.47;5045854;28;20025;-87
2022/01/21 11:16:19;;;;;;;0.10;0.10;;;;;;;9.53;63.17;103619.47;5048710;28;20029;-88
2022/01/21 11:18:58;;;;;;;3.95;1.05;;;;;;;9.54;63.10;103616.91;5046864;28;20084;-87
2022/01/21 11:21:39;;;;;;;0.20;0.20;;;;;;;9.62;62.87;103618.84;5045285;28;20475;-87
2022/01/21 11:24:08;;;;;;;0.10;0.10;;;;;;;9.54;62.59;103623.91;5045791;28;20018;-87
2022/01/21 11:26:35;;;;;;;0.10;0.10;;;;;;;9.52;62.55;103622.97;5047395;28;20037;-88
2022/01/21 11:29:04;;;;;;;0.10;0.10;;;;;;;9.56;62.18;103619.56;5047907;28;20021;-88
2022/01/21 11:31:31;;;;;;;0.10;0.10;;;;;;;9.62;62.30;103630.34;5039211;28;20059;-85
2022/01/21 11:33:58;;;;;;;0.10;0.10;;;;;;;9.65;61.67;103635.72;5041456;28;20033;-90
2022/01/21 11:36:26;;;;;;;0.10;0.10;;;;;;;9.78;61.99;103629.03;5039827;28;20464;-89
2022/01/21 11:38:55;;;;;;;0.10;0.10;;;;;;;9.78;61.36;103620.19;5041352;28;20025;-84
2022/01/21 11:41:28;;;;;;;0.10;0.10;;;;;;;9.95;60.93;103623.31;5041020;28;20037;-85
2022/01/21 11:44:00;;;;;;;0.10;0.10;;;;;;;9.97;60.96;103614.53;5040284;28;20033;-84
2022/01/21 11:49:20;;;;;;;0.00;0.00;;;;;;;10.07;59.45;103598.88;5095121;27;20410;-83
2022/01/21 11:51:46;;;;;;;0.00;0.00;;;;;;;10.15;60.26;103573.50;5094701;28;20090;-85
2022/01/21 11:54:15;;;;;;;0.10;0.10;;;;;;;10.19;59.26;103580.66;5092777;28;20044;-87
2022/01/21 12:05:10;;;;;;;0.00;0.00;;;;;;;10.09;59.93;103586.56;5048470;28;20872;-86
2022/01/21 12:13:06;;;;;;;0.10;0.10;;;;;;;9.64;61.74;103585.38;5075815;27;20454;-85
2022/01/21 12:21:07;;;;;;;0.00;0.00;;;;;;;9.50;62.70;103577.06;4793152;27;7492694;-86
2022/01/21 12:23:52;;;;;;;0.10;0.10;;;;;;;9.50;63.58;103585.88;5049344;28;20452;-86
2022/01/21 12:26:20;;;;;;;0.05;0.05;;;;;;;9.55;63.34;103586.00;5039210;28;20025;-85
2022/01/21 12:31:58;;;;;;;0.15;0.15;;;;;;;9.58;64.05;103574.63;5067512;27;20486;-86
2022/01/21 12:34:25;;;;;;;0.10;0.10;;;;;;;9.53;63.74;103577.13;5059754;28;20024;-83
2022/01/21 12:36:55;;;;;;;1.08;1.08;;;;;;;9.52;64.28;103577.97;5058198;28;20517;-80
2022/01/21 12:47:51;;;;;;;0.10;0.10;;;;;;;9.63;63.82;103558.03;5016063;28;20505;-83
2022/01/21 12:50:32;;;;;;;0.00;0.00;;;;;;;9.58;63.10;103553.44;5020751;28;20034;-83
2022/01/21 12:56:03;;;;;;;0.10;0.10;;;;;;;9.64;62.78;103556.25;5078987;28;20424;-83
2022/01/21 12:58:37;;;;;;;0.03;0.03;;;;;;;9.71;62.56;103551.16;5047833;28;20048;-82
2022/01/21 13:01:06;;;;;;;0.10;0.10;;;;;;;9.64;62.17;103543.91;5044251;28;20029;-83
2022/01/21 13:03:43;;;;;;;0.10;0.10;;;;;;;9.75;62.77;103545.97;5041541;28;20488;-83
2022/01/21 13:09:21;;;;;;;0.10;0.10;;;;;;;9.76;62.08;103531.84;5065352;27;20473;-84